Time;durP1;ratioP1;P1;durP2;ratioP2;P2;SDS_P1;SDS_P2;PMS_P1;PMS_P2;Temp;Humidity;BMP_temperature;BMP_pressure;BME280_temperature;BME280_humidity;BME280_pressure;Samples;Min_cycle;Max_cycle;Signal;HPM_P1;HPM_P2
2023/05/27 00:00:19;;;;;;;8.37;3.93;;;;;;;15.29;97.79;99927.06;5055081;28;20312;-80
2023/05/27 00:02:46;;;;;;;7.47;3.70;;;;;;;15.25;97.47;99937.53;5058557;28;20282;-79
2023/05/27 00:05:13;;;;;;;7.03;3.60;;;;;;;15.30;96.82;99929.50;5056766;28;20204;-79
2023/05/27 00:07:41;;;;;;;7.93;3.90;;;;;;;15.36;96.69;99925.84;5053810;28;20201;-79
2023/05/27 00:10:08;;;;;;;8.13;3.90;;;;;;;15.26;96.44;99931.06;5040845;28;20205;-80
2023/05/27 00:12:35;;;;;;;6.27;3.67;;;;;;;15.18;96.46;99927.94;5065146;28;20209;-80
2023/05/27 00:15:02;;;;;;;9.97;4.10;;;;;;;15.18;96.37;99934.16;5068266;28;20276;-80
2023/05/27 00:17:29;;;;;;;8.17;3.90;;;;;;;15.29;96.36;99930.59;5068287;28;20189;-80
2023/05/27 00:19:56;;;;;;;7.03;4.00;;;;;;;15.16;96.84;99930.91;5059536;28;20283;-79
2023/05/27 00:22:24;;;;;;;7.57;3.77;;;;;;;15.24;96.29;99927.81;5052862;28;20253;-78
2023/05/27 00:24:50;;;;;;;5.23;3.33;;;;;;;15.11;96.52;99936.19;5062839;28;20190;-79
2023/05/27 00:27:17;;;;;;;8.17;4.00;;;;;;;15.17;96.49;99931.69;5053330;28;20189;-79
2023/05/27 00:29:44;;;;;;;7.27;4.10;;;;;;;15.08;96.85;99927.75;5056047;28;20186;-79
2023/05/27 00:32:11;;;;;;;7.80;4.03;;;;;;;14.98;97.44;99929.19;5060563;28;20204;-78
2023/05/27 00:34:39;;;;;;;6.70;3.83;;;;;;;14.97;97.05;99930.28;5071017;28;20212;-79
2023/05/27 00:37:06;;;;;;;7.17;3.47;;;;;;;14.86;97.63;99930.31;5058775;28;20704;-78
2023/05/27 00:39:34;;;;;;;6.93;3.70;;;;;;;14.90;97.86;99928.75;5064753;28;20213;-79
2023/05/27 00:42:01;;;;;;;9.70;4.17;;;;;;;14.97;97.33;99929.47;5061479;28;20193;-78
2023/05/27 00:44:28;;;;;;;9.33;4.00;;;;;;;14.89;97.54;99929.81;5060130;28;20249;-79
2023/05/27 00:46:55;;;;;;;5.77;3.50;;;;;;;14.89;96.80;99936.03;5054874;28;20686;-79
2023/05/27 00:49:25;;;;;;;5.23;3.40;;;;;;;14.73;96.92;99933.28;5055855;28;20197;-79
2023/05/27 00:51:52;;;;;;;8.80;3.90;;;;;;;14.76;96.92;99928.22;5060350;28;20699;-78
2023/05/27 00:54:19;;;;;;;6.97;3.50;;;;;;;14.61;97.58;99936.00;5059749;28;20188;-78
2023/05/27 00:56:46;;;;;;;8.60;3.80;;;;;;;14.64;98.06;99934.72;5059165;28;20770;-78
2023/05/27 00:59:15;;;;;;;7.83;3.73;;;;;;;14.64;97.06;99934.72;5055105;28;20212;-79
2023/05/27 01:01:43;;;;;;;8.07;3.60;;;;;;;14.48;97.56;99936.28;5060397;28;20298;-79
2023/05/27 01:04:12;;;;;;;9.80;3.77;;;;;;;14.40;97.27;99926.69;5062329;28;20266;-79
2023/05/27 01:07:16;;;;;;;5.93;3.33;;;;;;;14.48;95.70;99920.91;5064169;28;20691;-81
2023/05/27 01:09:55;;;;;;;6.07;3.20;;;;;;;14.38;96.60;99925.25;5066453;28;20195;-82
2023/05/27 01:12:35;;;;;;;6.33;3.47;;;;;;;14.16;97.35;99922.34;5065973;28;20201;-80
2023/05/27 01:15:05;;;;;;;7.30;3.50;;;;;;;14.21;97.23;99922.47;5058625;28;20199;-79
2023/05/27 01:17:37;;;;;;;8.83;3.83;;;;;;;14.22;97.31;99923.28;5062686;28;20231;-79
2023/05/27 01:20:06;;;;;;;5.83;3.97;;;;;;;14.19;96.87;99924.56;5059475;28;20199;-80
2023/05/27 01:22:35;;;;;;;7.63;3.60;;;;;;;14.06;97.78;99920.25;5068453;28;20206;-79
2023/05/27 01:25:03;;;;;;;7.43;3.43;;;;;;;14.14;97.34;99924.44;5063695;28;20182;-79
2023/05/27 01:27:30;;;;;;;9.60;3.53;;;;;;;14.11;97.55;99928.44;5070257;28;20189;-79
2023/05/27 01:29:57;;;;;;;6.50;3.27;;;;;;;14.03;97.87;99922.59;5047694;28;20285;-79
2023/05/27 01:32:42;;;;;;;6.57;3.47;;;;;;;13.94;98.52;99921.31;5074924;28;20668;-79
2023/05/27 01:35:17;;;;;;;7.60;3.47;;;;;;;13.87;98.53;99925.97;5051372;28;20679;-79
2023/05/27 01:37:45;;;;;;;6.13;3.33;;;;;;;13.78;98.84;99920.13;5067451;28;20197;-80
2023/05/27 01:40:13;;;;;;;5.50;3.47;;;;;;;13.75;99.05;99920.59;5039990;28;20268;-79
2023/05/27 01:42:41;;;;;;;6.37;3.30;;;;;;;13.67;98.83;99918.22;5062963;28;20231;-79
2023/05/27 01:45:09;;;;;;;5.27;3.33;;;;;;;13.82;97.95;99925.84;5051083;28;20200;-79
2023/05/27 01:47:36;;;;;;;8.13;3.60;;;;;;;13.66;98.45;99920.13;5051628;28;20192;-79
2023/05/27 01:50:03;;;;;;;7.23;3.50;;;;;;;13.52;98.59;99915.19;5061270;28;20225;-79
2023/05/27 01:52:30;;;;;;;6.23;3.37;;;;;;;13.47;99.25;99923.94;5062663;28;20255;-79
2023/05/27 01:54:57;;;;;;;7.77;3.57;;;;;;;13.53;98.16;99914.94;5059294;28;20206;-79
2023/05/27 01:57:25;;;;;;;6.70;3.30;;;;;;;13.44;98.69;99924.38;5055596;28;20246;-79
2023/05/27 01:59:52;;;;;;;6.67;3.33;;;;;;;13.34;98.66;99920.66;5045537;28;20199;-79
2023/05/27 02:02:18;;;;;;;7.33;3.60;;;;;;;13.36;98.35;99916.66;5060477;28;20646;-79
2023/05/27 02:04:49;;;;;;;7.17;3.50;;;;;;;13.25;100.00;99914.75;5066030;28;20200;-78
2023/05/27 02:07:16;;;;;;;7.60;3.40;;;;;;;13.23;100.00;99915.00;5058321;28;20196;-79
2023/05/27 02:09:44;;;;;;;7.63;3.70;;;;;;;13.11;99.84;99911.44;5056854;28;20240;-79
2023/05/27 02:12:11;;;;;;;6.27;3.47;;;;;;;13.05;100.00;99914.19;5057816;28;20225;-79
2023/05/27 02:14:38;;;;;;;6.23;3.27;;;;;;;12.97;100.00;99922.59;5063176;28;20201;-79
2023/05/27 02:17:06;;;;;;;6.70;3.40;;;;;;;12.92;100.00;99914.41;5060475;28;20208;-79
2023/05/27 02:19:34;;;;;;;6.50;3.80;;;;;;;12.98;100.00;99922.34;5040202;28;20263;-79
2023/05/27 02:22:01;;;;;;;8.67;3.97;;;;;;;12.89;100.00;99921.03;5053998;28;20207;-79
2023/05/27 02:24:27;;;;;;;7.30;3.70;;;;;;;12.98;100.00;99922.34;5067085;28;20314;-80
2023/05/27 02:26:54;;;;;;;10.87;3.63;;;;;;;12.97;100.00;99920.72;5071364;28;20212;-80
2023/05/27 02:29:21;;;;;;;9.30;4.20;;;;;;;12.88;100.00;99916.69;5048111;28;20200;-80
2023/05/27 02:31:48;;;;;;;7.17;3.30;;;;;;;12.76;100.00;99916.66;5061588;28;20207;-80
2023/05/27 02:34:15;;;;;;;5.10;3.43;;;;;;;12.79;100.00;99924.25;5058677;28;20191;-80
2023/05/27 02:36:42;;;;;;;6.93;3.47;;;;;;;12.71;100.00;99927.25;5063558;28;20237;-80
2023/05/27 02:39:10;;;;;;;6.27;3.43;;;;;;;12.68;100.00;99929.59;5053603;28;20219;-80
2023/05/27 02:41:37;;;;;;;6.20;4.17;;;;;;;12.83;100.00;99931.91;5063834;28;20274;-80
2023/05/27 02:44:05;;;;;;;6.33;3.57;;;;;;;12.87;100.00;99931.22;5063722;28;20252;-80
2023/05/27 02:46:35;;;;;;;7.67;3.53;;;;;;;12.90;100.00;99928.06;5063101;28;20199;-80
2023/05/27 02:49:02;;;;;;;6.97;3.70;;;;;;;12.85;100.00;99941.34;5057528;28;20192;-81
2023/05/27 02:51:34;;;;;;;5.97;3.87;;;;;;;12.78;100.00;99936.06;5050233;28;20265;-82
2023/05/27 02:54:02;;;;;;;6.90;3.70;;;;;;;12.73;100.00;99924.38;5030826;28;20709;-80
2023/05/27 02:56:29;;;;;;;7.47;4.00;;;;;;;12.68;100.00;99927.72;5056705;28;20216;-81
2023/05/27 02:58:56;;;;;;;7.57;3.90;;;;;;;12.62;100.00;99930.50;5060543;28;20610;-81
2023/05/27 03:01:23;;;;;;;7.80;3.67;;;;;;;12.59;100.00;99934.47;5040981;28;20280;-80
2023/05/27 03:03:55;;;;;;;8.87;3.93;;;;;;;12.66;100.00;99937.06;5067305;28;20194;-82
2023/05/27 03:06:24;;;;;;;8.30;3.60;;;;;;;12.72;100.00;99928.09;5066201;28;20190;-80
2023/05/27 03:08:55;;;;;;;6.70;3.70;;;;;;;12.75;100.00;99925.75;5043686;28;20222;-82
2023/05/27 03:11:26;;;;;;;5.50;3.60;;;;;;;12.77;100.00;99925.53;5051875;28;20227;-81
2023/05/27 03:13:53;;;;;;;6.43;3.60;;;;;;;12.85;100.00;99925.22;5055550;28;20231;-81
2023/05/27 03:16:20;;;;;;;9.83;3.47;;;;;;;12.87;100.00;99930.38;5067709;28;20190;-82
2023/05/27 03:18:51;;;;;;;6.83;3.17;;;;;;;12.98;100.00;99929.59;5065400;28;20187;-80
2023/05/27 03:21:18;;;;;;;8.23;4.00;;;;;;;13.13;100.00;99928.19;5052323;28;20189;-80
2023/05/27 03:23:46;;;;;;;7.17;3.50;;;;;;;13.24;99.57;99929.28;5061596;28;20202;-80
2023/05/27 03:26:13;;;;;;;6.87;3.73;;;;;;;13.36;98.16;99926.59;5059083;28;20247;-80
2023/05/27 03:28:42;;;;;;;7.13;3.57;;;;;;;13.33;98.30;99932.44;5071046;28;20188;-80
2023/05/27 03:31:12;;;;;;;7.67;3.40;;;;;;;13.27;98.16;99934.19;5059641;28;20188;-81
2023/05/27 03:33:52;;;;;;;7.53;3.70;;;;;;;13.42;97.82;99925.69;5044067;28;20263;-80
2023/05/27 03:36:18;;;;;;;5.53;3.43;;;;;;;13.48;97.91;99933.66;5066241;28;20194;-78
2023/05/27 03:38:46;;;;;;;6.43;3.60;;;;;;;13.45;97.94;99936.81;5056860;28;20248;-83
2023/05/27 03:41:18;;;;;;;8.57;4.03;;;;;;;13.56;96.49;99932.50;5051127;28;20205;-81
2023/05/27 03:43:45;;;;;;;5.80;3.57;;;;;;;13.73;95.76;99928.06;5066677;28;20201;-81
2023/05/27 03:46:27;;;;;;;8.27;3.17;;;;;;;13.78;94.99;99927.38;5061050;28;20193;-82
2023/05/27 03:49:01;;;;;;;5.07;3.40;;;;;;;13.89;94.39;99932.78;5061643;28;20224;-82
2023/05/27 03:51:29;;;;;;;5.73;3.50;;;;;;;14.02;94.47;99927.16;5061184;28;20195;-83
2023/05/27 03:54:07;;;;;;;7.43;3.50;;;;;;;13.99;94.86;99934.91;5062023;28;20198;-82
2023/05/27 03:56:44;;;;;;;8.10;3.60;;;;;;;13.88;95.93;99933.81;5059901;28;20209;-80
2023/05/27 03:59:13;;;;;;;8.60;3.73;;;;;;;14.19;94.98;99929.94;5067735;28;20236;-81
2023/05/27 04:01:44;;;;;;;9.53;3.63;;;;;;;14.98;92.06;99931.06;5063848;28;20234;-81
2023/05/27 04:04:14;;;;;;;5.37;3.40;;;;;;;15.49;89.93;99938.19;5079033;28;20202;-81
2023/05/27 04:06:55;;;;;;;5.93;3.53;;;;;;;16.26;86.79;99938.38;5066354;28;20228;-80
2023/05/27 04:09:23;;;;;;;7.57;3.60;;;;;;;16.51;84.46;99941.44;5082756;28;20198;-81
2023/05/27 04:11:54;;;;;;;6.43;3.20;;;;;;;16.88;83.54;99938.13;5050751;28;20208;-81
2023/05/27 04:14:22;;;;;;;6.13;3.10;;;;;;;17.72;81.51;99936.56;5060469;28;20261;-81
2023/05/27 04:16:52;;;;;;;6.50;3.23;;;;;;;17.99;79.64;99937.31;5061631;28;20253;-81
2023/05/27 04:19:23;;;;;;;5.50;3.23;;;;;;;18.01;79.47;99937.03;5082162;28;20205;-81
2023/05/27 04:21:52;;;;;;;6.83;3.57;;;;;;;18.28;77.03;99936.94;5057054;28;20204;-80
2023/05/27 04:24:24;;;;;;;5.93;3.10;;;;;;;18.34;76.41;99952.97;5075559;28;20303;-81
2023/05/27 04:26:53;;;;;;;5.20;3.40;;;;;;;17.97;77.03;99950.28;5071024;28;20193;-80
2023/05/27 04:29:22;;;;;;;8.07;3.30;;;;;;;17.71;78.40;99951.16;5061416;28;20216;-81
2023/05/27 04:31:50;;;;;;;7.37;3.20;;;;;;;17.21;79.31;99946.06;5065235;28;20194;-81
2023/05/27 04:34:34;;;;;;;6.20;3.43;;;;;;;16.64;81.42;99954.63;5083396;28;20201;-80
2023/05/27 04:37:10;;;;;;;6.27;3.23;;;;;;;16.27;83.31;99951.66;5068059;28;20193;-80
2023/05/27 04:39:45;;;;;;;6.47;3.70;;;;;;;16.16;82.93;99962.56;5073961;28;20219;-80
2023/05/27 04:42:15;;;;;;;8.37;3.50;;;;;;;15.97;83.60;99967.41;5062698;28;20197;-81
2023/05/27 04:44:48;;;;;;;7.47;3.87;;;;;;;15.99;84.79;99969.88;5060080;28;20205;-80
2023/05/27 04:47:23;;;;;;;9.50;3.73;;;;;;;15.94;84.24;99972.50;5050940;28;20201;-81
2023/05/27 04:50:03;;;;;;;5.47;3.33;;;;;;;16.15;83.89;99974.41;5078689;28;20224;-81
2023/05/27 04:52:38;;;;;;;5.57;3.57;;;;;;;15.83;84.37;99968.78;5054025;28;20197;-83
2023/05/27 04:55:09;;;;;;;9.03;3.60;;;;;;;16.04;85.41;99964.53;5065158;28;20204;-81
2023/05/27 04:57:40;;;;;;;6.67;3.33;;;;;;;16.05;84.55;99975.09;5058282;28;20666;-81
2023/05/27 05:00:24;;;;;;;5.60;3.20;;;;;;;16.07;85.20;99974.84;5063462;28;20194;-81
2023/05/27 05:03:04;;;;;;;6.13;3.27;;;;;;;16.03;85.04;99974.53;5061813;28;20248;-82
2023/05/27 05:05:40;;;;;;;8.03;3.60;;;;;;;16.37;85.15;99974.50;5064514;28;20202;-81
2023/05/27 05:08:12;;;;;;;6.83;3.13;;;;;;;16.35;84.03;99990.97;5066195;28;20224;-82
2023/05/27 05:10:40;;;;;;;8.30;3.60;;;;;;;16.50;84.13;99987.66;5065239;28;20212;-81
2023/05/27 05:13:22;;;;;;;9.47;4.03;;;;;;;16.47;84.23;99986.25;5069869;28;20276;-81
2023/05/27 05:16:09;;;;;;;6.70;3.47;;;;;;;16.53;83.46;99979.03;5065176;28;20197;-81
2023/05/27 05:18:44;;;;;;;10.83;3.63;;;;;;;16.59;83.66;99980.78;5078984;28;20193;-81
2023/05/27 05:21:18;;;;;;;6.17;3.30;;;;;;;16.76;83.17;99978.00;5070078;28;20203;-80
2023/05/27 05:23:47;;;;;;;9.57;3.93;;;;;;;16.53;82.42;99984.44;5063317;28;20205;-81
2023/05/27 05:26:15;;;;;;;8.60;3.30;;;;;;;16.67;81.31;99981.16;5078158;28;20262;-80
2023/05/27 05:28:50;;;;;;;7.10;3.20;;;;;;;16.56;81.81;99987.47;5086187;28;20181;-80
2023/05/27 05:31:21;;;;;;;7.77;3.70;;;;;;;16.64;81.78;99983.56;5066363;28;20179;-81
2023/05/27 05:33:57;;;;;;;5.97;3.30;;;;;;;16.88;82.44;99984.94;5040019;28;20226;-80
2023/05/27 05:36:28;;;;;;;9.40;3.50;;;;;;;16.94;81.95;99994.75;5035276;28;20194;-81
2023/05/27 05:38:59;;;;;;;6.33;3.30;;;;;;;17.01;82.09;99992.69;5064915;28;20244;-81
2023/05/27 05:41:31;;;;;;;7.90;3.30;;;;;;;17.26;81.31;99994.88;5077630;28;20214;-81
2023/05/27 05:44:01;;;;;;;6.53;3.50;;;;;;;17.25;79.72;100000.53;5048201;28;20225;-81
2023/05/27 05:46:39;;;;;;;8.43;3.90;;;;;;;17.22;78.88;99993.72;5072046;28;20185;-81
2023/05/27 05:49:23;;;;;;;8.53;3.83;;;;;;;16.98;77.48;99990.47;5054360;28;20206;-80
2023/05/27 05:51:52;;;;;;;8.43;3.53;;;;;;;17.18;76.44;99992.59;5064572;28;20223;-81
2023/05/27 05:54:22;;;;;;;8.10;3.47;;;;;;;17.38;77.63;99987.41;5066540;28;20224;-80
2023/05/27 05:56:54;;;;;;;8.57;3.80;;;;;;;17.39;76.38;99991.75;5059426;28;20194;-80
2023/05/27 05:59:21;;;;;;;6.93;3.33;;;;;;;17.57;76.85;99991.38;5057443;28;20198;-79
2023/05/27 06:01:48;;;;;;;10.70;3.50;;;;;;;17.48;77.81;99992.09;5056544;28;20263;-79
2023/05/27 06:04:17;;;;;;;8.47;3.67;;;;;;;17.70;76.18;99987.47;5040750;28;20212;-79
2023/05/27 06:06:45;;;;;;;7.50;3.70;;;;;;;17.74;75.41;99987.75;5023740;28;20684;-79
2023/05/27 06:09:37;;;;;;;6.87;3.60;;;;;;;17.71;75.14;99983.69;5056980;28;20186;-79
2023/05/27 06:12:08;;;;;;;8.77;3.47;;;;;;;17.64;75.41;99990.41;5050254;28;20657;-79
2023/05/27 06:14:41;;;;;;;7.77;3.60;;;;;;;17.78;73.88;99999.72;5060730;28;20214;-79
2023/05/27 06:17:13;;;;;;;10.43;3.73;;;;;;;17.81;73.92;100000.03;5042519;28;20243;-79
2023/05/27 06:19:40;;;;;;;8.83;3.87;;;;;;;17.56;73.76;100002.47;5075686;28;20209;-79
2023/05/27 06:22:07;;;;;;;8.07;3.23;;;;;;;17.84;73.34;99999.53;5067385;28;20208;-79
2023/05/27 06:25:00;;;;;;;8.17;3.60;;;;;;;17.96;73.15;99999.34;5072605;28;20671;-79
2023/05/27 06:27:39;;;;;;;8.87;3.37;;;;;;;17.89;73.73;99987.91;5065142;28;20204;-79
2023/05/27 06:30:09;;;;;;;8.27;3.60;;;;;;;18.08;73.91;99997.28;5052670;28;20200;-79
2023/05/27 06:32:41;;;;;;;8.70;3.63;;;;;;;18.32;73.51;99990.41;5060584;28;20208;-80
2023/05/27 06:35:08;;;;;;;5.97;3.40;;;;;;;18.62;73.60;100002.53;5018459;28;20268;-79
2023/05/27 06:37:35;;;;;;;6.67;3.20;;;;;;;18.65;70.57;100000.13;5034902;28;20190;-79
2023/05/27 06:40:02;;;;;;;8.23;3.77;;;;;;;18.58;70.58;100006.84;5035841;28;20174;-79
2023/05/27 06:42:29;;;;;;;8.73;4.03;;;;;;;18.80;71.01;100008.31;5036315;28;20183;-79
2023/05/27 06:45:11;;;;;;;8.30;3.50;;;;;;;18.55;71.67;100010.09;5023427;28;20178;-79
2023/05/27 06:47:38;;;;;;;8.33;3.50;;;;;;;18.37;70.54;100005.91;5036088;28;20248;-79
2023/05/27 06:50:05;;;;;;;9.37;3.77;;;;;;;18.14;69.60;100007.09;5036175;28;20200;-80
2023/05/27 06:52:32;;;;;;;7.63;3.70;;;;;;;18.50;70.06;100010.84;5019394;28;20649;-80
2023/05/27 06:55:20;;;;;;;9.63;3.67;;;;;;;18.68;71.07;100015.88;5036681;28;20280;-79
2023/05/27 06:58:06;;;;;;;6.17;3.27;;;;;;;18.54;70.61;100016.59;5037035;28;20182;-79
2023/05/27 07:00:45;;;;;;;8.27;3.63;;;;;;;18.59;68.54;100008.50;5036382;28;20652;-79
2023/05/27 07:03:30;;;;;;;8.50;3.80;;;;;;;18.66;69.74;100011.81;5037054;28;20249;-79
2023/05/27 07:05:57;;;;;;;10.37;3.90;;;;;;;19.02;70.08;100012.78;5035052;28;20673;-79
2023/05/27 07:08:27;;;;;;;6.87;3.47;;;;;;;19.03;69.00;100003.56;5036928;28;20199;-79
2023/05/27 07:11:14;;;;;;;10.03;3.60;;;;;;;19.22;69.01;100012.88;5037467;28;20208;-79
2023/05/27 07:13:41;;;;;;;7.33;3.60;;;;;;;19.16;67.52;100014.75;5036763;28;20210;-79
2023/05/27 07:16:08;;;;;;;6.90;3.77;;;;;;;18.90;67.17;100002.94;5035375;28;20221;-78
2023/05/27 07:18:35;;;;;;;7.80;3.37;;;;;;;19.13;68.12;100006.31;5035857;28;20597;-79
2023/05/27 07:21:04;;;;;;;9.50;3.80;;;;;;;19.20;67.63;100007.69;5036134;28;20194;-79
2023/05/27 07:23:31;;;;;;;8.57;3.30;;;;;;;18.79;67.78;100008.59;5036468;28;20210;-80
2023/05/27 07:26:13;;;;;;;7.27;3.20;;;;;;;19.09;68.95;100013.34;5040599;28;20202;-79
2023/05/27 07:28:41;;;;;;;7.57;3.30;;;;;;;19.36;69.00;100016.72;5037807;28;20202;-79
2023/05/27 07:31:19;;;;;;;9.87;3.70;;;;;;;19.13;67.03;100011.75;5037638;28;20254;-80
2023/05/27 07:33:54;;;;;;;7.93;3.33;;;;;;;19.59;67.53;100012.72;5036595;28;20217;-79
2023/05/27 07:36:21;;;;;;;10.00;4.00;;;;;;;19.66;67.33;100013.25;5037385;28;20202;-79
2023/05/27 07:38:47;;;;;;;7.30;3.43;;;;;;;18.84;67.13;100023.03;5046380;28;20243;-79
2023/05/27 07:41:14;;;;;;;9.20;3.73;;;;;;;19.12;66.44;100013.63;5078800;28;20189;-79
2023/05/27 07:43:42;;;;;;;7.00;3.53;;;;;;;19.29;66.94;100013.41;5078762;28;20279;-80
2023/05/27 07:46:08;;;;;;;10.67;3.90;;;;;;;19.57;67.59;100004.00;5079966;28;20295;-79
2023/05/27 07:48:38;;;;;;;8.50;3.47;;;;;;;19.16;66.80;100016.63;5078653;28;20185;-79
2023/05/27 07:51:06;;;;;;;8.00;3.40;;;;;;;19.41;66.29;100007.75;5062952;28;20184;-79
2023/05/27 07:53:34;;;;;;;11.27;3.60;;;;;;;19.64;68.69;99999.13;5078695;28;20224;-79
2023/05/27 07:56:03;;;;;;;8.50;3.70;;;;;;;19.25;67.58;100004.16;5071378;28;20201;-79
2023/05/27 07:58:30;;;;;;;7.97;3.60;;;;;;;19.68;68.44;100005.66;5059546;28;20189;-79
2023/05/27 08:01:12;;;;;;;7.70;3.30;;;;;;;19.87;67.36;100020.34;5058242;28;20194;-79
2023/05/27 08:03:46;;;;;;;9.03;3.90;;;;;;;20.06;66.47;99999.66;5041718;28;20671;-79
2023/05/27 08:06:17;;;;;;;9.13;3.43;;;;;;;19.99;67.09;100001.84;5056765;28;20234;-79
2023/05/27 08:08:50;;;;;;;9.77;3.90;;;;;;;19.53;65.68;100002.91;5038552;28;20184;-79
2023/05/27 08:11:36;;;;;;;8.10;3.47;;;;;;;19.95;65.10;100000.78;5076823;28;20215;-79
2023/05/27 08:14:22;;;;;;;8.80;3.90;;;;;;;19.86;66.04;99993.44;5068454;28;20208;-79
2023/05/27 08:17:08;;;;;;;9.67;4.07;;;;;;;19.91;65.54;99988.81;5061582;28;20247;-79
2023/05/27 08:19:47;;;;;;;8.30;3.53;;;;;;;19.93;67.02;99994.78;5058444;28;20612;-79
2023/05/27 08:22:24;;;;;;;12.20;4.27;;;;;;;20.10;65.80;99984.47;5058984;28;20220;-79
2023/05/27 08:25:08;;;;;;;7.93;3.60;;;;;;;20.30;65.32;99988.22;5056968;28;20180;-78
2023/05/27 08:28:01;;;;;;;6.77;3.50;;;;;;;20.48;66.01;99980.31;5065735;28;20202;-81
2023/05/27 08:30:48;;;;;;;9.97;4.00;;;;;;;20.72;63.47;99985.97;5060806;28;20215;-80
2023/05/27 08:33:20;;;;;;;7.97;3.77;;;;;;;20.60;63.78;99993.63;5061463;28;20320;-79
2023/05/27 08:35:47;;;;;;;8.90;3.90;;;;;;;20.51;66.71;99984.41;5058317;28;20898;-79
2023/05/27 08:38:14;;;;;;;9.00;3.57;;;;;;;20.40;65.93;99978.16;5063393;28;20189;-79
2023/05/27 08:40:41;;;;;;;9.40;3.57;;;;;;;20.46;65.33;99990.69;5064919;28;20241;-79
2023/05/27 08:43:08;;;;;;;9.23;3.50;;;;;;;20.52;64.00;99986.88;5050763;28;20187;-78
2023/05/27 08:45:43;;;;;;;8.00;3.60;;;;;;;20.47;64.28;99986.06;5046229;28;20244;-79
2023/05/27 08:48:13;;;;;;;9.53;4.20;;;;;;;20.70;65.41;99982.72;5055203;28;20197;-79
2023/05/27 08:50:41;;;;;;;9.17;4.17;;;;;;;20.53;62.91;99987.69;5055416;28;20206;-78
2023/05/27 08:53:08;;;;;;;8.17;3.67;;;;;;;20.76;64.03;99980.81;5064786;28;20200;-79
2023/05/27 08:55:37;;;;;;;7.90;3.63;;;;;;;20.90;62.61;99968.22;5047355;28;20267;-78
2023/05/27 08:58:05;;;;;;;9.63;3.60;;;;;;;21.15;64.28;99976.28;5034764;28;20207;-79
2023/05/27 09:00:37;;;;;;;7.80;3.83;;;;;;;21.27;61.59;99975.97;5035599;28;20207;-79
2023/05/27 09:03:13;;;;;;;9.17;3.63;;;;;;;21.27;62.75;99984.16;5045175;28;20409;-79
2023/05/27 09:05:40;;;;;;;9.33;3.80;;;;;;;20.95;61.80;99968.22;5044175;28;20653;-79
2023/05/27 09:08:07;;;;;;;11.43;4.17;;;;;;;21.19;63.18;99977.34;5051373;28;20283;-79
2023/05/27 09:10:38;;;;;;;9.47;3.70;;;;;;;21.34;61.43;99971.00;5044598;28;20285;-79
2023/05/27 09:13:05;;;;;;;7.63;3.70;;;;;;;21.36;61.66;99966.09;5049071;28;20191;-79
2023/05/27 09:15:33;;;;;;;9.63;3.60;;;;;;;21.33;62.36;99969.38;5035945;28;20212;-79
2023/05/27 09:17:59;;;;;;;9.20;4.10;;;;;;;21.48;61.38;99963.81;5050564;28;20193;-79
2023/05/27 09:20:27;;;;;;;9.77;4.10;;;;;;;21.71;61.17;99965.03;5056189;28;20190;-78
2023/05/27 09:23:02;;;;;;;7.97;3.60;;;;;;;21.64;59.43;99961.81;5041500;28;20660;-79
2023/05/27 09:25:29;;;;;;;9.73;3.70;;;;;;;21.56;60.50;99951.53;5048230;28;20195;-78
2023/05/27 09:27:56;;;;;;;8.93;4.13;;;;;;;21.36;59.49;99957.91;5058943;28;20221;-78
2023/05/27 09:30:26;;;;;;;11.07;3.77;;;;;;;21.75;61.11;99952.44;5046359;28;20195;-80
2023/05/27 09:33:00;;;;;;;10.73;3.50;;;;;;;22.01;59.38;99944.91;5046412;28;20197;-81
2023/05/27 09:35:27;;;;;;;8.37;3.60;;;;;;;21.64;59.83;99943.56;5052157;28;20213;-81
2023/05/27 09:37:54;;;;;;;9.27;3.70;;;;;;;21.68;59.22;99943.78;5050676;28;20199;-80
2023/05/27 09:40:21;;;;;;;6.60;3.13;;;;;;;21.85;58.21;99947.72;5052621;28;20195;-79
2023/05/27 09:42:49;;;;;;;7.77;3.77;;;;;;;21.73;57.79;99944.56;5051522;28;20197;-79
2023/05/27 09:45:17;;;;;;;14.30;4.43;;;;;;;21.94;60.45;99946.03;5043774;28;20201;-81
2023/05/27 09:47:49;;;;;;;10.17;3.77;;;;;;;21.94;59.63;99929.66;5046371;28;20185;-82
2023/05/27 09:50:17;;;;;;;8.37;4.07;;;;;;;22.01;56.85;99939.44;5045218;28;20195;-80
2023/05/27 09:52:45;;;;;;;7.90;3.40;;;;;;;21.85;55.67;99936.00;5050829;28;20289;-79
2023/05/27 09:55:31;;;;;;;10.70;3.70;;;;;;;22.34;57.48;99941.28;5031777;28;20307;-82
2023/05/27 09:57:58;;;;;;;12.20;3.80;;;;;;;22.29;56.77;99935.88;5052757;28;20189;-81
2023/05/27 10:00:27;;;;;;;7.13;3.37;;;;;;;22.40;54.21;99942.84;5050768;28;20202;-79
2023/05/27 10:02:53;;;;;;;8.40;3.57;;;;;;;22.34;55.90;99939.38;5056323;28;20231;-79
2023/05/27 10:05:21;;;;;;;8.67;4.27;;;;;;;22.38;56.94;99942.34;5047445;28;20207;-81
2023/05/27 10:07:48;;;;;;;7.93;3.73;;;;;;;22.47;51.77;99937.06;5055317;28;20266;-81
2023/05/27 10:10:20;;;;;;;6.93;3.20;;;;;;;21.77;51.99;99931.97;5066088;28;20184;-81
2023/05/27 10:12:49;;;;;;;7.30;3.27;;;;;;;21.47;52.58;99930.28;5053729;28;20223;-81
2023/05/27 10:15:32;;;;;;;7.83;3.47;;;;;;;22.00;51.33;99940.53;5054938;28;20215;-81
2023/05/27 10:18:01;;;;;;;9.63;3.20;;;;;;;21.80;50.84;99930.59;5058590;28;20190;-80
2023/05/27 10:20:31;;;;;;;8.17;3.33;;;;;;;21.72;53.67;99933.94;5043704;28;20196;-83
2023/05/27 10:23:19;;;;;;;7.10;3.53;;;;;;;21.91;53.95;99935.69;5045679;28;20200;-81
2023/05/27 10:25:53;;;;;;;6.90;3.50;;;;;;;21.42;54.06;99929.50;5053563;28;20191;-80
2023/05/27 10:28:31;;;;;;;6.70;3.33;;;;;;;21.95;56.98;99934.03;5049866;28;20194;-80
2023/05/27 10:31:09;;;;;;;6.17;3.20;;;;;;;22.46;52.42;99928.03;5052974;28;20191;-81
2023/05/27 10:33:38;;;;;;;6.40;3.40;;;;;;;22.47;51.68;99921.50;5046549;28;20248;-81
2023/05/27 10:36:11;;;;;;;9.27;3.50;;;;;;;22.35;55.18;99921.06;5056729;28;20613;-81
2023/05/27 10:38:40;;;;;;;9.37;3.50;;;;;;;22.68;53.66;99922.03;5045492;28;20225;-80
2023/05/27 10:41:08;;;;;;;7.60;3.47;;;;;;;22.67;50.12;99912.25;5047627;28;20290;-81
2023/05/27 10:43:35;;;;;;;7.63;3.20;;;;;;;22.94;50.38;99919.84;5055834;28;20727;-84
2023/05/27 10:46:09;;;;;;;6.05;3.22;;;;;;;22.65;50.83;99912.53;5070403;28;20266;-81
2023/05/27 10:48:39;;;;;;;10.00;4.10;;;;;;;22.76;50.93;99913.25;5066431;28;20750;-81
2023/05/27 10:51:09;;;;;;;8.30;3.50;;;;;;;22.79;49.38;99902.53;5067764;28;20195;-82
2023/05/27 10:53:36;;;;;;;8.33;3.30;;;;;;;22.92;48.56;99911.13;5066404;28;20204;-82
2023/05/27 10:56:04;;;;;;;7.20;3.20;;;;;;;22.73;47.60;99909.16;5064926;28;20215;-81
2023/05/27 10:58:34;;;;;;;8.43;3.23;;;;;;;23.05;47.09;99910.41;5063130;28;20189;-81
2023/05/27 11:01:09;;;;;;;7.43;3.22;;;;;;;22.61;47.33;99921.59;5057520;28;20197;-82
2023/05/27 11:03:42;;;;;;;7.47;3.15;;;;;;;22.75;48.35;99914.34;5060657;28;20181;-80
2023/05/27 11:06:11;;;;;;;7.23;3.00;;;;;;;22.56;48.87;99906.09;5054046;28;20227;-82
2023/05/27 11:08:38;;;;;;;8.67;3.30;;;;;;;22.85;49.47;99906.03;5051465;28;20193;-82
2023/05/27 11:11:09;;;;;;;6.23;3.03;;;;;;;23.15;49.99;99897.38;5053887;28;20216;-81
2023/05/27 11:13:44;;;;;;;7.77;3.73;;;;;;;23.25;48.87;99888.22;5053496;28;20189;-78
2023/05/27 11:16:15;;;;;;;6.90;3.22;;;;;;;23.47;49.11;99898.59;5062724;28;20208;-79
2023/05/27 11:18:47;;;;;;;5.53;3.37;;;;;;;22.98;48.82;99888.09;5057387;28;20189;-79
2023/05/27 11:21:19;;;;;;;7.70;3.60;;;;;;;23.55;48.54;99884.25;5059327;28;20224;-79
2023/05/27 11:23:47;;;;;;;6.30;3.38;;;;;;;23.83;48.35;99888.69;5056673;28;20661;-80
2023/05/27 11:26:14;;;;;;;7.15;3.28;;;;;;;24.03;45.01;99887.47;5055529;28;20200;-81
2023/05/27 11:28:50;;;;;;;7.38;3.25;;;;;;;23.90;46.31;99889.09;5056040;28;20189;-81
2023/05/27 11:31:19;;;;;;;7.90;3.22;;;;;;;23.50;46.24;99876.13;5053522;28;20193;-81
2023/05/27 11:33:49;;;;;;;8.95;3.78;;;;;;;23.54;48.27;99874.41;5060823;28;20281;-79
2023/05/27 11:36:16;;;;;;;7.10;3.47;;;;;;;23.23;48.69;99865.88;5051080;28;20209;-81
2023/05/27 11:38:54;;;;;;;8.20;3.65;;;;;;;23.06;49.43;99876.50;5060998;28;20213;-79
2023/05/27 11:41:25;;;;;;;5.97;3.00;;;;;;;23.47;49.03;99868.53;5060659;28;20193;-79
2023/05/27 11:43:55;;;;;;;9.35;3.55;;;;;;;23.41;48.42;99870.50;5064809;28;20235;-79
2023/05/27 11:46:23;;;;;;;6.25;3.40;;;;;;;23.99;47.53;99868.13;5064420;28;20204;-79
2023/05/27 11:48:51;;;;;;;7.22;3.47;;;;;;;24.36;44.89;99869.06;5059276;28;20224;-80